Nearby METAR Reports

 

EGMC - Southend-On-Sea, United Kingdom
Distance from station: NE 10km
Updated: 25/02/2018 14:50
Clear
Clear
 Wind from E
Wind: E 14 mph , 22 km/h
Temperature: 3°C
Wind Chill: -2°C
Dew Point: -5°C
Humidity: 56%
Barometer: 1028 hPa
Summary: Clear
Visibility: greater than 7 miles , 10 km
2018/02/25 14:50 EGMC 251450Z 08012KT CAVOK 03/M05 Q1028
EGLC - London City Airp, United Kingdom
Distance from station: W 37km
Updated: 25/02/2018 14:50
Clear
Clear
 Wind from ENE
Wind: ENE 20 mph , 31 km/h
Temperature: 4°C
Wind Chill: -2°C
Dew Point: -7°C
Humidity: 45%
Barometer: 1028 hPa
Clouds: Clear
Visibility: 6 miles , 10 km
2018/02/25 14:50 EGLC 251450Z AUTO 07017KT 030V090 9999 NCD 04/M07 Q1028
EGKB - Biggin Hill, United Kingdom
Distance from station: WSW 45km
Updated: 25/02/2018 14:50
Clear
Clear
 Wind from ENE
Wind: ENE 16 mph , 26 km/h
Temperature: 2°C
Wind Chill: -3°C
Dew Point: -6°C
Humidity: 56%
Barometer: 1027 hPa
Summary: Clear
Visibility: greater than 7 miles , 10 km
2018/02/25 14:50 EGKB 251450Z 07014KT CAVOK 02/M06 Q1027
 
EGSS - Stansted Airport, United Kingdom
Distance from station: NNW 48km
Updated: 25/02/2018 14:50
Clear
Clear
 Wind from ENE
Wind: ENE 16 mph , 26 km/h
Temperature: 3°C
Wind Chill: -2°C
Dew Point: -7°C
Humidity: 48%
Barometer: 1028 hPa
Clouds: Clear
Visibility: 6 miles , 10 km
2018/02/25 14:50 EGSS 251450Z AUTO 07014KT 9999 NCD 03/M07 Q1028
EGKK - London/Gatwick A, United Kingdom
Distance from station: SW 67km
Updated: 25/02/2018 14:50
Clear
Clear
 Wind from ENE
Wind: ENE 16 mph , 26 km/h
Temperature: 4°C
Wind Chill: -1°C
Dew Point: -7°C
Humidity: 45%
Barometer: 1026 hPa
Summary: Clear
Visibility: greater than 7 miles , 10 km
2018/02/25 14:50 EGKK 251450Z 07014KT CAVOK 04/M07 Q1026
EGMD - Lydd Airport, United Kingdom
Distance from station: SSE 67km
Updated: 25/02/2018 14:50
Clear
Clear
 Wind from ENE
Wind: ENE 23 mph , 37 km/h
Temperature: 3°C
Wind Chill: -3°C
Dew Point: -6°C
Humidity: 52%
Barometer: 1027 hPa
Summary: Clear
Visibility: greater than 7 miles , 10 km
2018/02/25 14:50 EGMD 251450Z 06020KT CAVOK 03/M06 Q1027
 
EGWU - Northolt Raf, United Kingdom
Distance from station: W 69km
Updated: 25/02/2018 14:50
Clear
Clear
 Wind from ENE
Wind: ENE 14 mph , 22 km/h
Temperature: 4°C
Wind Chill: -1°C
Dew Point: -8°C
Humidity: 42%
Barometer: 1027 hPa
Summary: Clear
Visibility: greater than 7 miles , 10 km
2018/02/25 14:50 EGWU 251450Z 07012KT CAVOK 04/M08 Q1027 NOSIG
EGLL - London/Heathrow, United Kingdom
Distance from station: W 72km
Updated: 25/02/2018 14:50
Clear
Clear
 Wind from ENE
Wind: ENE 12 mph , 19 km/h
Temperature: 5°C
Wind Chill: 1°C
Dew Point: -6°C
Humidity: 45%
Barometer: 1028 hPa
Clouds: Clear
Visibility: 6 miles , 10 km
2018/02/25 14:50 EGLL 251450Z AUTO 06010KT 020V090 9999 NCD 05/M06 Q1028 NOSIG
EGUW - Wattisham Raf, United Kingdom
Distance from station: NNE 72km
Updated: 25/02/2018 14:50
Clear
Clear
 Wind from E
Wind: E 14 mph , 22 km/h
Temperature: 2°C
Wind Chill: -3°C
Dew Point: 2°C
Humidity: 100%
Barometer: 1029 hPa
Clouds: Clear
Visibility: 6 miles , 10 km
2018/02/25 14:50 EGUW 251450Z AUTO 10012KT 9999 NCD 02/02 Q1029
 
EGGW - Luton Airport, United Kingdom
Distance from station: WNW 76km
Updated: 25/02/2018 14:50
Clear
Clear
 Wind from E
Wind: E 13 mph , 20 km/h
Temperature: 3°C
Wind Chill: -2°C
Dew Point: -5°C
Humidity: 56%
Barometer: 1027 hPa
Clouds: Clear
Visibility: 6 miles , 10 km
2018/02/25 14:50 EGGW 251450Z AUTO 09011KT 060V120 9999 NCD 03/M05 Q1027
EGSC - Cambridge, United Kingdom
Distance from station: NNW 81km
Updated: 25/02/2018 14:50
Clear
Clear
 Wind from E
Wind: E 9 mph , 15 km/h
Temperature: 4°C
Wind Chill: 1°C
Dew Point: -7°C
Humidity: 45%
Barometer: 1029 hPa
Summary: Clear
Visibility: greater than 7 miles , 10 km
2018/02/25 14:50 EGSC 251450Z 08008KT CAVOK 04/M07 Q1029